Time;durP1;ratioP1;P1;durP2;ratioP2;P2;SDS_P1;SDS_P2;PMS_P1;PMS_P2;Temp;Humidity;BMP_temperature;BMP_pressure;BME280_temperature;BME280_humidity;BME280_pressure;Samples;Min_cycle;Max_cycle;Signal;HPM_P1;HPM_P2
2023/07/29 00:01:11;;;;;;;0.60;0.60;;;;;;;21.94;55.55;95172.66;5111950;28;20496;-57
2023/07/29 00:03:39;;;;;;;0.60;0.40;;;;;;;22.17;55.63;95173.66;5085878;28;20474;-57
2023/07/29 00:06:08;;;;;;;0.40;0.30;;;;;;;22.19;54.42;95187.59;5111548;28;20432;-57
2023/07/29 00:08:36;;;;;;;0.40;0.30;;;;;;;22.18;55.75;95193.34;5111639;28;20489;-57
2023/07/29 00:11:05;;;;;;;0.60;0.40;;;;;;;21.93;56.35;95182.69;5112100;28;20442;-57
2023/07/29 00:13:33;;;;;;;0.50;0.30;;;;;;;21.97;57.01;95191.66;5111706;28;20500;-57
2023/07/29 00:16:03;;;;;;;0.50;0.40;;;;;;;22.01;56.73;95192.53;5111555;28;20443;-57
2023/07/29 00:18:31;;;;;;;0.70;0.40;;;;;;;22.22;56.39;95188.81;5112013;28;20524;-57
2023/07/29 00:21:00;;;;;;;0.60;0.50;;;;;;;22.12;56.03;95192.81;5097854;28;20439;-57
2023/07/29 00:23:28;;;;;;;0.50;0.40;;;;;;;22.14;56.91;95187.84;5112002;28;20518;-57
2023/07/29 00:25:56;;;;;;;1.00;0.80;;;;;;;21.93;57.49;95192.69;5111866;28;20485;-57
2023/07/29 00:28:25;;;;;;;0.67;0.47;;;;;;;22.02;57.65;95190.59;5111764;28;20553;-57
2023/07/29 00:30:53;;;;;;;0.50;0.40;;;;;;;22.00;57.39;95188.28;5111258;28;20446;-56
2023/07/29 00:33:23;;;;;;;0.40;0.30;;;;;;;21.92;57.78;95183.00;5111233;28;20446;-57
2023/07/29 00:35:51;;;;;;;0.40;0.30;;;;;;;21.71;57.57;95175.06;5111509;28;20440;-57
2023/07/29 00:38:20;;;;;;;0.40;0.27;;;;;;;21.44;59.08;95186.63;5115481;28;20475;-57
2023/07/29 00:40:48;;;;;;;0.40;0.30;;;;;;;21.38;58.98;95183.38;5115424;28;20439;-57
2023/07/29 00:43:16;;;;;;;0.60;0.30;;;;;;;21.32;59.46;95173.97;5114871;28;20439;-57
2023/07/29 00:45:46;;;;;;;0.50;0.30;;;;;;;21.30;60.24;95178.13;5115190;28;20432;-57
2023/07/29 00:48:15;;;;;;;0.50;0.30;;;;;;;21.26;60.32;95175.31;5115056;28;20528;-57
2023/07/29 00:50:45;;;;;;;0.40;0.23;;;;;;;21.28;60.40;95172.25;5115012;28;20474;-57
2023/07/29 00:53:12;;;;;;;0.50;0.30;;;;;;;21.30;59.75;95181.56;5115506;28;20852;-57
2023/07/29 00:55:40;;;;;;;0.40;0.20;;;;;;;21.20;60.53;95183.97;5115350;28;20871;-57
2023/07/29 00:58:09;;;;;;;0.50;0.40;;;;;;;21.19;60.27;95185.09;5114718;28;21032;-57
2023/07/29 01:00:37;;;;;;;0.50;0.30;;;;;;;21.19;60.25;95188.56;5115061;27;20435;-57
2023/07/29 01:03:06;;;;;;;0.40;0.30;;;;;;;21.04;60.37;95183.06;5114985;28;20953;-57
2023/07/29 01:05:43;;;;;;;0.60;0.50;;;;;;;20.87;59.28;95194.88;5115173;28;20440;-57
2023/07/29 01:08:21;;;;;;;0.73;0.73;;;;;;;20.72;61.28;95195.53;5114370;28;20447;-56
2023/07/29 01:10:59;;;;;;;0.50;0.40;;;;;;;20.77;61.01;95190.69;5115045;28;20479;-56
2023/07/29 01:13:38;;;;;;;8.03;0.50;;;;;;;20.23;60.16;95191.97;5090237;28;20435;-57
2023/07/29 01:16:16;;;;;;;1.83;0.40;;;;;;;19.99;62.74;95189.16;5114709;28;20439;-57
2023/07/29 01:18:48;;;;;;;0.50;0.40;;;;;;;20.50;61.19;95190.53;5114403;28;20554;-57
2023/07/29 01:21:18;;;;;;;0.40;0.30;;;;;;;20.77;61.19;95193.38;5114963;28;20436;-57
2023/07/29 01:23:47;;;;;;;0.43;0.33;;;;;;;20.76;60.73;95180.25;5114732;28;20444;-56
2023/07/29 01:26:15;;;;;;;0.50;0.50;;;;;;;20.84;59.68;95185.53;5114635;28;20475;-56
2023/07/29 01:28:44;;;;;;;0.50;0.30;;;;;;;20.98;60.30;95182.50;5114692;27;20436;-56
2023/07/29 01:31:17;;;;;;;0.70;0.50;;;;;;;20.93;60.27;95188.09;5101142;28;20440;-57
2023/07/29 01:33:52;;;;;;;0.40;0.30;;;;;;;20.95;60.29;95182.41;5114179;28;20489;-57
2023/07/29 01:36:23;;;;;;;0.50;0.30;;;;;;;20.98;59.72;95187.09;5114461;27;20960;-57
2023/07/29 01:38:56;;;;;;;0.50;0.47;;;;;;;20.88;60.04;95182.94;5114238;28;20540;-57
2023/07/29 01:41:26;;;;;;;0.40;0.20;;;;;;;20.83;60.08;95191.25;5114051;28;20492;-57
2023/07/29 01:43:54;;;;;;;0.40;0.30;;;;;;;20.71;60.82;95180.47;5114073;28;20432;-57
2023/07/29 01:46:23;;;;;;;0.40;0.30;;;;;;;20.68;60.56;95186.53;5113947;28;20436;-57
2023/07/29 01:48:51;;;;;;;0.50;0.50;;;;;;;20.60;60.77;95190.09;5113505;28;20483;-57
2023/07/29 01:51:21;;;;;;;0.90;0.40;;;;;;;20.50;61.02;95195.94;5114251;28;20440;-56
2023/07/29 01:53:49;;;;;;;0.60;0.50;;;;;;;20.70;60.70;95187.78;5113940;28;20531;-57
2023/07/29 01:56:19;;;;;;;0.60;0.40;;;;;;;20.72;60.33;95195.53;5113453;28;20436;-57
2023/07/29 01:58:48;;;;;;;0.50;0.30;;;;;;;20.23;60.01;95195.44;5087918;28;20537;-56
2023/07/29 02:01:16;;;;;;;0.50;0.30;;;;;;;19.84;62.12;95182.50;5113474;28;20436;-56
2023/07/29 02:03:44;;;;;;;0.50;0.50;;;;;;;19.97;62.32;95194.88;5105844;28;20954;-56
2023/07/29 02:06:12;;;;;;;0.40;0.30;;;;;;;20.25;62.07;95187.03;5108740;28;20968;-56
2023/07/29 02:08:41;;;;;;;0.70;0.47;;;;;;;20.43;61.84;95185.72;5114067;28;20471;-56
2023/07/29 02:11:09;;;;;;;0.40;0.30;;;;;;;20.62;61.29;95187.88;5113122;28;20432;-56
2023/07/29 02:13:39;;;;;;;0.40;0.30;;;;;;;20.43;60.88;95182.25;5113709;28;20428;-56
2023/07/29 02:16:07;;;;;;;0.50;0.30;;;;;;;20.48;61.17;95190.09;5113505;28;20431;-56
2023/07/29 02:18:36;;;;;;;0.50;0.40;;;;;;;20.53;61.13;95190.69;5113645;28;20554;-56
2023/07/29 02:21:04;;;;;;;0.40;0.30;;;;;;;20.54;61.57;95196.84;5113675;28;20432;-56
2023/07/29 02:23:33;;;;;;;0.60;0.40;;;;;;;20.35;60.98;95199.28;5113549;28;20687;-56
2023/07/29 02:26:01;;;;;;;0.67;0.33;;;;;;;20.35;61.27;95194.69;5113141;28;20493;-56
2023/07/29 02:28:29;;;;;;;0.60;0.60;;;;;;;20.51;61.35;95192.13;5113800;28;20478;-56
2023/07/29 02:31:19;;;;;;;0.40;0.30;;;;;;;20.03;61.48;95112.84;5113467;27;20436;-56
2023/07/29 02:33:48;;;;;;;0.40;0.30;;;;;;;20.49;61.04;95197.06;5113034;28;20522;-56
2023/07/29 02:36:16;;;;;;;0.50;0.30;;;;;;;20.52;60.89;95201.75;5113187;28;20982;-56
2023/07/29 02:38:45;;;;;;;0.50;0.40;;;;;;;20.39;61.40;95200.19;5113129;28;20503;-56
2023/07/29 02:41:15;;;;;;;0.40;0.30;;;;;;;20.17;61.18;95150.19;5113186;28;20479;-56
2023/07/29 02:43:44;;;;;;;0.50;0.40;;;;;;;20.46;60.56;95187.75;5112751;28;20478;-56
2023/07/29 02:46:12;;;;;;;1.27;1.20;;;;;;;20.67;60.92;95193.81;5112987;28;20949;-57
2023/07/29 02:48:43;;;;;;;0.50;0.30;;;;;;;20.64;60.28;95193.72;5112177;28;20497;-56
2023/07/29 02:51:11;;;;;;;0.40;0.30;;;;;;;20.52;60.30;95193.69;5112753;28;20481;-56
2023/07/29 02:53:39;;;;;;;0.50;0.30;;;;;;;20.46;60.94;95195.03;5112369;28;20432;-56
2023/07/29 02:56:09;;;;;;;0.77;0.30;;;;;;;20.16;61.59;95192.47;5112912;28;20443;-56
2023/07/29 02:58:38;;;;;;;0.50;0.30;;;;;;;20.26;61.81;95194.75;5112739;28;20555;-56
2023/07/29 03:01:07;;;;;;;0.47;0.30;;;;;;;20.24;61.52;95193.53;5112648;28;20436;-56
2023/07/29 03:03:36;;;;;;;0.90;0.60;;;;;;;20.04;62.31;95192.44;5112515;28;20440;-56
2023/07/29 03:06:07;;;;;;;0.60;0.50;;;;;;;20.25;61.23;95187.81;5112611;28;20508;-56
2023/07/29 03:08:36;;;;;;;0.40;0.20;;;;;;;19.83;62.00;95140.59;5112774;28;21104;-56
2023/07/29 03:11:07;;;;;;;0.50;0.40;;;;;;;20.39;60.83;95195.56;5112835;28;20464;-57
2023/07/29 03:13:35;;;;;;;0.70;0.40;;;;;;;20.29;61.08;95206.00;5112644;28;20439;-56
2023/07/29 03:16:07;;;;;;;0.50;0.40;;;;;;;20.66;59.94;95208.44;5112054;28;20428;-56
2023/07/29 03:18:36;;;;;;;1.60;0.67;;;;;;;19.78;63.51;95213.41;5112361;28;20463;-56
2023/07/29 03:21:06;;;;;;;3.70;0.50;;;;;;;19.55;64.93;95212.19;5112529;28;20480;-56
2023/07/29 03:23:35;;;;;;;0.57;0.47;;;;;;;19.39;67.22;95217.34;5112830;28;20443;-56
2023/07/29 03:26:09;;;;;;;0.50;0.33;;;;;;;19.45;67.61;95215.25;5111642;28;20471;-57
2023/07/29 03:28:40;;;;;;;0.90;0.80;;;;;;;18.96;70.18;95219.47;5099830;28;20432;-56
2023/07/29 03:31:08;;;;;;;0.63;0.63;;;;;;;19.15;70.94;95232.50;5111927;28;20432;-56
2023/07/29 03:33:37;;;;;;;0.97;0.50;;;;;;;19.39;70.20;95221.94;5112063;28;20442;-56
2023/07/29 03:36:07;;;;;;;0.60;0.50;;;;;;;19.31;71.49;95241.53;5112463;28;20837;-56
2023/07/29 03:38:39;;;;;;;0.47;0.30;;;;;;;19.71;69.77;95229.28;5111923;28;20467;-56
2023/07/29 03:41:09;;;;;;;0.50;0.30;;;;;;;19.82;69.24;95227.75;5112479;28;20489;-56
2023/07/29 03:43:37;;;;;;;0.63;0.60;;;;;;;19.77;68.86;95227.16;5111761;28;20444;-56
2023/07/29 03:46:06;;;;;;;2.20;0.60;;;;;;;20.06;68.50;95230.53;5112409;28;20469;-56
2023/07/29 03:48:39;;;;;;;0.50;0.30;;;;;;;20.01;67.59;95228.06;5111322;28;20467;-56
2023/07/29 03:51:09;;;;;;;0.60;0.40;;;;;;;19.95;68.21;95229.41;5111789;28;20440;-56
2023/07/29 03:53:37;;;;;;;0.40;0.30;;;;;;;19.74;69.74;95231.31;5111574;28;20524;-56
2023/07/29 03:56:05;;;;;;;0.40;0.20;;;;;;;19.75;70.29;95237.47;5112091;28;20443;-56
2023/07/29 03:58:34;;;;;;;0.60;0.40;;;;;;;19.73;70.49;95235.13;5106958;28;20475;-56
2023/07/29 04:01:02;;;;;;;0.40;0.40;;;;;;;19.73;70.85;95242.41;5104018;28;20999;-57
2023/07/29 04:03:30;;;;;;;0.60;0.30;;;;;;;19.77;69.44;95236.03;5111690;28;20860;-57
2023/07/29 04:05:59;;;;;;;0.50;0.30;;;;;;;19.77;69.89;95233.34;5112002;28;20439;-57
2023/07/29 04:08:29;;;;;;;1.07;0.30;;;;;;;19.66;70.40;95215.25;5111450;28;20523;-57
2023/07/29 04:10:57;;;;;;;0.50;0.40;;;;;;;19.88;68.30;95239.91;5112911;28;20523;-57
2023/07/29 04:13:26;;;;;;;0.50;0.40;;;;;;;19.72;69.75;95243.50;5089787;28;20450;-57
2023/07/29 04:15:54;;;;;;;0.53;0.30;;;;;;;19.95;71.30;95248.22;5115749;28;20508;-57
2023/07/29 04:18:22;;;;;;;0.63;0.63;;;;;;;20.03;70.79;95244.69;5116116;28;20446;-57
2023/07/29 04:20:51;;;;;;;0.50;0.30;;;;;;;20.20;70.51;95236.44;5115904;28;20436;-57
2023/07/29 04:23:19;;;;;;;0.50;0.30;;;;;;;20.10;68.44;95246.84;5115987;27;20439;-57
2023/07/29 04:25:49;;;;;;;1.73;0.40;;;;;;;19.91;70.96;95246.53;5115758;28;20431;-58
2023/07/29 04:28:18;;;;;;;0.70;0.63;;;;;;;19.64;71.10;95247.84;5116021;28;21026;-58
2023/07/29 04:30:46;;;;;;;0.50;0.30;;;;;;;19.94;72.70;95248.53;5115225;28;20941;-58
2023/07/29 04:33:14;;;;;;;0.53;0.50;;;;;;;19.99;70.01;95251.81;5115792;28;20448;-58
2023/07/29 04:35:43;;;;;;;0.50;0.47;;;;;;;20.33;70.12;95247.28;5115505;28;20537;-58
2023/07/29 04:38:11;;;;;;;0.50;0.30;;;;;;;20.72;68.27;95254.78;5115670;28;20435;-58
2023/07/29 04:40:39;;;;;;;1.50;0.50;;;;;;;20.55;68.83;95258.44;5115799;28;20507;-58
2023/07/29 04:43:09;;;;;;;0.50;0.33;;;;;;;20.26;68.57;95255.91;5115797;28;20898;-58
2023/07/29 04:45:37;;;;;;;0.40;0.30;;;;;;;20.31;68.68;95257.59;5115040;28;20439;-59
2023/07/29 04:48:05;;;;;;;0.40;0.30;;;;;;;20.41;68.55;95247.19;5114781;28;20843;-58
2023/07/29 04:50:34;;;;;;;0.40;0.30;;;;;;;20.29;69.29;95241.75;5115307;28;20446;-58
2023/07/29 04:53:02;;;;;;;0.50;0.30;;;;;;;20.17;69.21;95249.75;5115378;28;20941;-58
2023/07/29 04:55:31;;;;;;;0.50;0.40;;;;;;;20.22;69.26;95257.63;5088501;28;20469;-58
2023/07/29 04:58:00;;;;;;;2.40;1.17;;;;;;;19.76;69.12;95258.66;5114735;28;20435;-58
2023/07/29 05:00:29;;;;;;;0.60;0.50;;;;;;;20.02;70.02;95256.56;5115446;28;20471;-58
2023/07/29 05:02:58;;;;;;;0.80;0.80;;;;;;;20.30;70.23;95258.69;5114778;28;20439;-58
2023/07/29 05:05:26;;;;;;;0.50;0.40;;;;;;;20.69;68.17;95252.75;5115022;28;20534;-58
2023/07/29 05:07:54;;;;;;;0.70;0.40;;;;;;;20.69;68.00;95256.25;5114665;28;20479;-58
2023/07/29 05:10:23;;;;;;;0.60;0.33;;;;;;;20.74;67.23;95252.53;5115061;28;20436;-58
2023/07/29 05:12:51;;;;;;;0.70;0.47;;;;;;;21.00;65.77;95261.06;5114711;28;20965;-58
2023/07/29 05:15:19;;;;;;;2.10;0.50;;;;;;;21.17;64.84;95260.91;5114931;28;20440;-58
2023/07/29 05:17:49;;;;;;;4.37;0.60;;;;;;;21.08;64.71;95264.81;5114817;28;20489;-58
2023/07/29 05:20:18;;;;;;;0.80;0.60;;;;;;;21.22;64.38;95274.16;5114877;28;20471;-57
2023/07/29 05:22:46;;;;;;;0.73;0.60;;;;;;;21.03;63.22;95273.09;5113447;28;20432;-57
2023/07/29 05:25:14;;;;;;;0.70;0.67;;;;;;;20.41;64.57;95276.81;5114548;28;20796;-57
2023/07/29 05:27:43;;;;;;;0.70;0.50;;;;;;;20.69;63.88;95275.09;5114448;28;20436;-57
2023/07/29 05:30:11;;;;;;;0.70;0.70;;;;;;;21.10;64.38;95270.69;5114781;28;20467;-56
2023/07/29 05:32:40;;;;;;;0.63;0.60;;;;;;;20.83;62.31;95272.06;5108249;28;20445;-57
2023/07/29 05:35:10;;;;;;;0.60;0.60;;;;;;;20.86;62.68;95269.50;5106970;28;20493;-57
2023/07/29 05:37:39;;;;;;;0.60;0.30;;;;;;;21.40;60.95;95277.41;5087578;28;20440;-57
2023/07/29 05:40:09;;;;;;;0.50;0.40;;;;;;;21.53;60.26;95287.84;5113808;28;20622;-57
2023/07/29 05:42:37;;;;;;;0.40;0.30;;;;;;;21.88;60.97;95279.28;5114574;28;20443;-57
2023/07/29 05:45:07;;;;;;;0.50;0.30;;;;;;;22.22;59.48;95278.72;5113933;28;20440;-56
2023/07/29 05:47:36;;;;;;;0.40;0.30;;;;;;;22.53;59.02;95278.81;5113623;28;20471;-57
2023/07/29 05:50:05;;;;;;;0.60;0.50;;;;;;;22.58;58.52;95278.56;5113505;28;20483;-56
2023/07/29 05:52:35;;;;;;;0.50;0.47;;;;;;;22.81;57.05;95283.41;5114161;28;20802;-57
2023/07/29 05:55:05;;;;;;;0.70;0.50;;;;;;;22.44;57.16;95275.47;5113696;28;20500;-56
2023/07/29 05:57:33;;;;;;;0.63;0.57;;;;;;;22.63;55.89;95269.44;5113816;28;20479;-58
2023/07/29 06:00:01;;;;;;;0.60;0.50;;;;;;;22.92;55.72;95273.66;5113949;28;20875;-56
2023/07/29 06:02:29;;;;;;;0.50;0.30;;;;;;;23.00;56.76;95267.28;5113647;28;20471;-57
2023/07/29 06:04:58;;;;;;;6.63;0.80;;;;;;;23.00;53.49;95268.06;5113670;28;20444;-58
2023/07/29 06:07:29;;;;;;;1.43;0.50;;;;;;;23.10;55.51;95272.16;5114048;28;20802;-56
2023/07/29 06:09:59;;;;;;;0.50;0.30;;;;;;;23.72;53.65;95266.72;5113790;28;20858;-56
2023/07/29 06:12:27;;;;;;;0.50;0.40;;;;;;;24.04;54.17;95272.78;5113439;28;20451;-56
2023/07/29 06:14:56;;;;;;;0.60;0.50;;;;;;;24.34;51.73;95262.97;5087246;28;20443;-56
2023/07/29 06:17:24;;;;;;;0.50;0.40;;;;;;;24.61;50.82;95261.97;5113115;27;20496;-55
2023/07/29 06:19:52;;;;;;;0.40;0.20;;;;;;;25.01;51.18;95253.41;5113244;28;20463;-57
2023/07/29 06:22:21;;;;;;;0.60;0.53;;;;;;;25.30;49.84;95254.63;5113315;28;20435;-57
2023/07/29 06:24:49;;;;;;;0.67;0.67;;;;;;;25.11;48.53;95254.72;5113606;28;20501;-57
2023/07/29 06:27:19;;;;;;;0.73;0.60;;;;;;;24.93;47.85;95251.72;5111970;28;20435;-55
2023/07/29 06:29:47;;;;;;;0.93;0.70;;;;;;;24.85;48.95;95263.56;5113137;28;20439;-55
2023/07/29 06:32:15;;;;;;;1.47;0.60;;;;;;;25.02;49.54;95252.25;5112748;28;20440;-56
2023/07/29 06:34:43;;;;;;;0.70;0.60;;;;;;;25.38;49.72;95245.47;5113186;28;20471;-56
2023/07/29 06:37:12;;;;;;;3.07;0.50;;;;;;;25.70;49.28;95243.25;5113040;28;20493;-55
2023/07/29 06:39:40;;;;;;;0.50;0.43;;;;;;;26.14;47.39;95232.59;5112969;28;20496;-56
2023/07/29 06:42:08;;;;;;;0.50;0.40;;;;;;;26.05;47.68;95237.50;5113183;28;20431;-56
2023/07/29 06:44:38;;;;;;;0.50;0.40;;;;;;;25.98;47.53;95230.06;5113121;28;20439;-57
2023/07/29 06:47:06;;;;;;;0.70;0.47;;;;;;;25.57;47.20;95191.13;5112805;28;20520;-57
2023/07/29 06:49:35;;;;;;;0.53;0.33;;;;;;;26.24;47.31;95230.00;5113125;28;20861;-57
2023/07/29 06:52:04;;;;;;;0.60;0.60;;;;;;;26.88;48.81;95230.69;5113082;28;20455;-57
2023/07/29 06:54:32;;;;;;;0.47;0.30;;;;;;;26.84;47.45;95232.59;5112782;28;20436;-58
2023/07/29 06:57:00;;;;;;;0.50;0.40;;;;;;;26.85;45.74;95215.13;5112884;28;20436;-58
2023/07/29 06:59:29;;;;;;;0.77;0.77;;;;;;;27.12;45.77;95224.69;5112841;28;20439;-58
2023/07/29 07:01:59;;;;;;;0.50;0.47;;;;;;;26.76;45.67;95223.59;5112011;28;20471;-57
2023/07/29 07:04:28;;;;;;;0.67;0.60;;;;;;;26.69;45.85;95217.28;5112576;28;20436;-56
2023/07/29 07:06:56;;;;;;;1.93;0.70;;;;;;;26.61;46.34;95221.09;5112530;27;20435;-58
2023/07/29 07:09:25;;;;;;;0.60;0.60;;;;;;;26.61;45.20;95212.94;5112275;28;20595;-57
2023/07/29 07:11:53;;;;;;;0.50;0.37;;;;;;;27.17;44.37;95163.69;5112344;28;20443;-57
2023/07/29 07:14:21;;;;;;;0.83;0.83;;;;;;;27.45;44.53;95212.91;5112174;28;20778;-58
2023/07/29 07:16:50;;;;;;;0.50;0.50;;;;;;;28.00;44.07;95216.31;5112445;27;20435;-58
2023/07/29 07:19:20;;;;;;;0.53;0.50;;;;;;;28.76;41.88;95200.63;5111989;28;20507;-57
2023/07/29 07:21:48;;;;;;;0.50;0.50;;;;;;;27.88;43.03;95211.22;5112075;28;20532;-58
2023/07/29 07:24:16;;;;;;;0.60;0.60;;;;;;;28.18;43.58;95204.34;5112221;28;20432;-57
2023/07/29 07:26:44;;;;;;;0.50;0.40;;;;;;;28.63;42.58;95199.44;5112371;28;20485;-58
2023/07/29 07:29:13;;;;;;;0.60;0.57;;;;;;;29.20;42.54;95195.59;5112092;28;20463;-57
2023/07/29 07:31:41;;;;;;;1.10;0.40;;;;;;;29.66;40.99;95200.22;5112033;28;20445;-58
2023/07/29 07:34:10;;;;;;;0.80;0.80;;;;;;;29.02;41.11;95196.75;5111336;28;20434;-59
2023/07/29 07:36:39;;;;;;;0.50;0.50;;;;;;;29.58;41.40;95188.53;5111927;28;20435;-59
2023/07/29 07:39:12;;;;;;;0.40;0.40;;;;;;;30.04;41.07;95191.16;5111941;28;20808;-58
2023/07/29 07:41:41;;;;;;;0.40;0.30;;;;;;;30.23;39.36;95181.72;5111734;28;21069;-58
2023/07/29 07:44:10;;;;;;;0.90;0.40;;;;;;;30.68;39.06;95178.75;5111860;28;20837;-56
2023/07/29 07:46:39;;;;;;;2.27;0.80;;;;;;;30.02;39.51;95169.69;5111477;28;20937;-56
2023/07/29 07:49:08;;;;;;;0.40;0.40;;;;;;;29.69;38.80;95170.16;5103939;28;20468;-56
2023/07/29 07:51:36;;;;;;;4.00;0.60;;;;;;;29.65;39.90;95163.91;5106339;28;20432;-56
2023/07/29 07:54:06;;;;;;;0.40;0.30;;;;;;;30.43;38.09;95163.66;5112283;28;20466;-56
2023/07/29 07:56:34;;;;;;;0.50;0.50;;;;;;;30.76;38.28;95174.00;5109842;28;20436;-56
2023/07/29 07:59:03;;;;;;;1.10;0.67;;;;;;;30.68;37.46;95170.53;5101142;28;20450;-56
2023/07/29 08:01:35;;;;;;;0.70;0.40;;;;;;;30.95;37.81;95170.75;5111674;28;20471;-56
2023/07/29 08:04:04;;;;;;;0.50;0.43;;;;;;;31.04;38.57;95160.13;5112149;28;20438;-56
2023/07/29 08:06:33;;;;;;;1.30;0.63;;;;;;;30.86;36.31;95156.72;5109608;28;20431;-56
2023/07/29 08:09:03;;;;;;;0.50;0.40;;;;;;;31.07;36.72;95148.34;5103625;28;20929;-56
2023/07/29 08:11:33;;;;;;;0.40;0.30;;;;;;;31.80;36.38;95148.81;5111704;28;20438;-56
2023/07/29 08:14:01;;;;;;;0.60;0.50;;;;;;;32.15;35.59;95138.63;5112170;28;20439;-56
2023/07/29 08:16:29;;;;;;;0.40;0.40;;;;;;;31.78;37.23;95139.44;5111757;28;20491;-56
2023/07/29 08:18:58;;;;;;;0.50;0.50;;;;;;;31.39;36.87;95142.59;5111222;28;20431;-56
2023/07/29 08:21:27;;;;;;;1.63;1.00;;;;;;;31.44;37.29;95139.41;5111321;28;20487;-55
2023/07/29 08:23:56;;;;;;;0.93;0.40;;;;;;;32.14;36.12;95135.13;5111445;28;20566;-55
2023/07/29 08:26:24;;;;;;;0.50;0.40;;;;;;;32.73;35.55;95135.47;5111723;28;20438;-56
2023/07/29 08:28:54;;;;;;;0.40;0.40;;;;;;;33.03;35.65;95140.09;5111563;28;20472;-54
2023/07/29 08:31:22;;;;;;;0.40;0.40;;;;;;;32.62;35.82;95129.38;5112091;28;20778;-53
2023/07/29 08:33:50;;;;;;;3.90;0.90;;;;;;;32.23;36.28;95135.38;5097961;28;20427;-54
2023/07/29 08:36:19;;;;;;;0.60;0.40;;;;;;;33.12;36.91;95121.13;5112062;28;20979;-54
2023/07/29 08:38:47;;;;;;;0.40;0.30;;;;;;;33.43;35.77;95121.75;5111646;28;20462;-54
2023/07/29 08:41:21;;;;;;;0.73;0.50;;;;;;;32.40;35.22;95120.66;5111319;28;20908;-54
2023/07/29 08:43:53;;;;;;;0.60;0.40;;;;;;;32.88;35.00;95114.84;5111331;28;20435;-54
2023/07/29 08:46:24;;;;;;;0.50;0.40;;;;;;;33.37;35.16;95113.22;5111644;28;20430;-54
2023/07/29 08:48:52;;;;;;;0.70;0.43;;;;;;;34.13;33.87;95114.16;5110559;28;20474;-54
2023/07/29 08:51:22;;;;;;;0.50;0.50;;;;;;;34.33;34.84;95095.63;5111510;28;20438;-54
2023/07/29 08:53:50;;;;;;;0.50;0.43;;;;;;;34.78;35.31;95107.56;5111100;28;20935;-54
2023/07/29 08:56:19;;;;;;;0.40;0.40;;;;;;;34.55;33.43;95093.97;5111058;28;20464;-54
2023/07/29 08:58:48;;;;;;;0.97;0.97;;;;;;;34.15;34.73;95093.28;5114434;28;20434;-52
2023/07/29 09:01:16;;;;;;;0.60;0.57;;;;;;;34.77;34.81;95086.75;5115196;28;20473;-54
2023/07/29 09:03:46;;;;;;;0.53;0.43;;;;;;;34.82;33.95;95088.19;5115428;28;20474;-55
2023/07/29 09:06:15;;;;;;;0.40;0.30;;;;;;;34.66;33.94;95083.47;5115013;28;20441;-54
2023/07/29 09:08:45;;;;;;;0.60;0.53;;;;;;;33.99;32.34;95075.91;5114852;28;20530;-54
2023/07/29 09:11:16;;;;;;;0.63;0.50;;;;;;;33.70;32.64;95076.50;5115203;28;20816;-55
2023/07/29 09:13:44;;;;;;;0.40;0.30;;;;;;;34.33;32.15;95059.84;5115296;28;20486;-55
2023/07/29 09:16:13;;;;;;;0.60;0.30;;;;;;;34.80;33.13;95060.31;5114966;27;20548;-54
2023/07/29 09:18:42;;;;;;;0.40;0.30;;;;;;;35.29;34.36;95059.09;5114798;28;20462;-54
2023/07/29 09:21:12;;;;;;;0.50;0.40;;;;;;;35.08;30.86;95048.63;5114580;28;20477;-53
2023/07/29 09:23:41;;;;;;;0.40;0.30;;;;;;;35.93;30.72;95060.84;5114722;28;20491;-55
2023/07/29 09:26:10;;;;;;;0.47;0.47;;;;;;;35.57;32.51;95002.41;5114881;28;20470;-54
2023/07/29 09:28:39;;;;;;;0.90;0.60;;;;;;;35.62;29.85;95049.50;5114390;28;21008;-55
2023/07/29 09:31:08;;;;;;;0.90;0.90;;;;;;;34.86;30.77;94989.75;5087874;28;20961;-54
2023/07/29 09:33:37;;;;;;;0.30;0.30;;;;;;;35.87;30.38;95048.81;5113930;28;20669;-54
2023/07/29 09:36:12;;;;;;;0.40;0.30;;;;;;;36.06;32.77;95045.09;5114646;28;20967;-54
2023/07/29 09:38:40;;;;;;;0.70;0.43;;;;;;;35.53;31.04;95051.34;5114481;28;20431;-54
2023/07/29 09:41:08;;;;;;;0.50;0.50;;;;;;;35.02;31.10;95042.03;5114733;28;20215;-54
2023/07/29 09:43:37;;;;;;;0.57;0.57;;;;;;;35.74;29.45;95038.97;5113918;28;20427;-54
2023/07/29 09:46:07;;;;;;;0.50;0.40;;;;;;;36.61;29.89;95034.75;5114290;28;20484;-54
2023/07/29 09:48:36;;;;;;;0.60;0.50;;;;;;;36.13;29.01;95033.84;5113434;28;20216;-54
2023/07/29 09:51:13;;;;;;;0.30;0.30;;;;;;;35.96;29.83;95026.06;5114405;28;20544;-54
2023/07/29 09:53:44;;;;;;;0.50;0.40;;;;;;;35.66;28.93;95027.34;5114154;28;20615;-54
2023/07/29 09:56:15;;;;;;;0.40;0.37;;;;;;;36.18;29.82;95016.75;5114173;28;20585;-54
2023/07/29 09:58:45;;;;;;;0.50;0.50;;;;;;;36.66;29.89;95009.34;5113939;28;20631;-55
2023/07/29 10:01:15;;;;;;;0.70;0.70;;;;;;;36.27;28.80;95011.34;5114190;28;20193;-54
2023/07/29 10:03:45;;;;;;;0.40;0.30;;;;;;;35.97;28.96;94945.66;5113833;27;20200;-54
2023/07/29 10:06:15;;;;;;;0.50;0.40;;;;;;;36.62;30.03;94997.63;5100254;28;20675;-54
2023/07/29 10:08:44;;;;;;;0.40;0.30;;;;;;;37.26;28.11;94994.25;5113278;28;20204;-54
2023/07/29 10:11:13;;;;;;;0.40;0.40;;;;;;;37.68;27.74;94988.41;5113440;28;20197;-54
2023/07/29 10:13:41;;;;;;;0.60;0.60;;;;;;;37.46;27.25;94994.72;5113427;28;20189;-54
2023/07/29 10:16:21;;;;;;;0.32;0.25;;;;;;;37.75;28.20;94980.59;5113663;28;20197;-54
2023/07/29 10:18:50;;;;;;;0.43;0.40;;;;;;;37.72;27.15;94991.81;5113635;28;20201;-54
2023/07/29 10:21:22;;;;;;;0.50;0.40;;;;;;;38.13;27.04;94983.13;5113584;28;20676;-55
2023/07/29 10:23:54;;;;;;;0.50;0.50;;;;;;;38.08;28.58;94984.47;5113228;28;20222;-55
2023/07/29 10:26:23;;;;;;;0.40;0.40;;;;;;;38.07;28.15;94968.34;5088894;28;20243;-54
2023/07/29 10:28:55;;;;;;;0.30;0.30;;;;;;;38.23;27.04;94973.63;5113011;28;20255;-54
2023/07/29 10:31:24;;;;;;;0.35;0.35;;;;;;;38.59;27.10;94978.53;5113696;28;20188;-54
2023/07/29 10:33:52;;;;;;;0.60;0.40;;;;;;;38.08;25.99;94973.41;5113849;28;20188;-54
2023/07/29 10:36:22;;;;;;;4.88;0.55;;;;;;;37.57;25.80;94974.22;5113043;28;20301;-55
2023/07/29 10:38:51;;;;;;;0.45;0.45;;;;;;;38.35;25.09;94963.69;5113562;28;20239;-52
2023/07/29 10:41:19;;;;;;;0.30;0.30;;;;;;;38.15;26.50;94958.53;5113342;28;20197;-54
2023/07/29 10:43:48;;;;;;;0.30;0.22;;;;;;;38.90;25.54;94956.28;5112982;28;20299;-54
2023/07/29 10:46:18;;;;;;;0.30;0.20;;;;;;;39.00;25.90;94955.81;5113201;28;20196;-54
2023/07/29 10:48:54;;;;;;;0.50;0.50;;;;;;;39.15;25.85;94945.66;5112333;28;20256;-55
2023/07/29 10:51:25;;;;;;;0.55;0.55;;;;;;;39.25;24.83;94954.75;5113400;28;20257;-54
2023/07/29 10:53:55;;;;;;;0.52;0.40;;;;;;;38.61;26.36;94943.59;5085984;28;20197;-54
2023/07/29 10:56:29;;;;;;;0.60;0.40;;;;;;;38.73;25.59;94939.16;5112569;28;20517;-53
2023/07/29 10:58:59;;;;;;;0.40;0.30;;;;;;;37.48;26.11;94936.19;5112407;28;20229;-54
2023/07/29 11:01:29;;;;;;;0.45;0.45;;;;;;;38.13;25.48;94936.06;5112917;28;20196;-54
2023/07/29 11:04:25;;;;;;;0.40;0.30;;;;;;;37.87;28.55;94926.44;5112628;28;20217;-55
2023/07/29 11:07:29;;;;;;;0.32;0.30;;;;;;;37.10;26.18;94928.09;5103704;28;20205;-54
2023/07/29 11:10:02;;;;;;;0.40;0.40;;;;;;;38.13;26.42;94902.84;5098270;28;20730;-55
2023/07/29 11:12:42;;;;;;;0.40;0.40;;;;;;;38.39;24.61;94918.00;5112798;28;20284;-54
2023/07/29 11:15:19;;;;;;;0.30;0.20;;;;;;;39.15;24.99;94917.16;5088656;28;20220;-54
2023/07/29 11:17:48;;;;;;;0.30;0.30;;;;;;;39.09;25.20;94919.03;5112300;28;20592;-54
2023/07/29 11:20:18;;;;;;;0.57;0.57;;;;;;;38.04;24.76;94917.44;5111931;28;20321;-54
2023/07/29 11:22:47;;;;;;;0.50;0.50;;;;;;;38.03;25.18;94913.13;5112068;28;20245;-55
2023/07/29 11:25:17;;;;;;;0.30;0.30;;;;;;;37.38;26.46;94916.00;5112847;28;20189;-56
2023/07/29 11:27:46;;;;;;;0.30;0.30;;;;;;;37.84;27.65;94907.94;5112804;28;20197;-55
2023/07/29 11:30:16;;;;;;;0.40;0.40;;;;;;;38.47;26.94;94907.41;5112662;28;20188;-55
2023/07/29 11:32:45;;;;;;;0.30;0.30;;;;;;;38.90;25.58;94895.31;5112114;28;20203;-56
2023/07/29 11:35:15;;;;;;;0.47;0.40;;;;;;;37.92;25.40;94845.59;5111701;28;20193;-53
2023/07/29 11:37:45;;;;;;;0.32;0.32;;;;;;;38.11;25.39;94899.78;5112122;28;20193;-55
2023/07/29 11:40:17;;;;;;;0.30;0.20;;;;;;;39.18;24.72;94896.84;5112494;28;20285;-55
2023/07/29 11:42:46;;;;;;;0.55;0.55;;;;;;;38.89;23.50;94894.53;5111459;28;20230;-55
2023/07/29 11:45:15;;;;;;;0.30;0.30;;;;;;;39.81;23.28;94882.81;5110384;28;20203;-55